sensor_id;sensor_type;location;lat;lon;timestamp;P1;durP1;ratioP1;P2;durP2;ratioP2
39140;SDS011;24875;48.436;10.298;2023-07-29T00:01:52;4.45;;;2.15;;
39140;SDS011;24875;48.436;10.298;2023-07-29T00:04:20;3.17;;;1.08;;
39140;SDS011;24875;48.436;10.298;2023-07-29T00:06:47;3.30;;;1.50;;
39140;SDS011;24875;48.436;10.298;2023-07-29T00:09:13;1.70;;;1.08;;
39140;SDS011;24875;48.436;10.298;2023-07-29T00:11:40;2.00;;;1.45;;
39140;SDS011;24875;48.436;10.298;2023-07-29T00:14:06;4.45;;;2.00;;
39140;SDS011;24875;48.436;10.298;2023-07-29T00:16:33;2.67;;;1.50;;
39140;SDS011;24875;48.436;10.298;2023-07-29T00:18:59;0.98;;;0.93;;
39140;SDS011;24875;48.436;10.298;2023-07-29T00:21:27;3.55;;;1.92;;
39140;SDS011;24875;48.436;10.298;2023-07-29T00:23:54;2.47;;;1.67;;
39140;SDS011;24875;48.436;10.298;2023-07-29T00:26:22;2.42;;;1.40;;
39140;SDS011;24875;48.436;10.298;2023-07-29T00:28:51;1.70;;;1.02;;
39140;SDS011;24875;48.436;10.298;2023-07-29T00:31:17;1.15;;;0.95;;
39140;SDS011;24875;48.436;10.298;2023-07-29T00:33:44;1.95;;;1.33;;
39140;SDS011;24875;48.436;10.298;2023-07-29T00:36:10;1.92;;;1.27;;
39140;SDS011;24875;48.436;10.298;2023-07-29T00:38:38;3.63;;;1.65;;
39140;SDS011;24875;48.436;10.298;2023-07-29T00:41:04;10.27;;;2.05;;
39140;SDS011;24875;48.436;10.298;2023-07-29T00:43:31;1.60;;;1.20;;
39140;SDS011;24875;48.436;10.298;2023-07-29T00:45:57;4.38;;;1.58;;
39140;SDS011;24875;48.436;10.298;2023-07-29T00:48:26;1.83;;;1.60;;
39140;SDS011;24875;48.436;10.298;2023-07-29T00:50:53;2.17;;;1.38;;
39140;SDS011;24875;48.436;10.298;2023-07-29T00:53:20;1.48;;;1.20;;
39140;SDS011;24875;48.436;10.298;2023-07-29T00:55:48;4.85;;;1.42;;
39140;SDS011;24875;48.436;10.298;2023-07-29T00:58:15;1.52;;;1.00;;
39140;SDS011;24875;48.436;10.298;2023-07-29T01:00:41;2.75;;;1.23;;
39140;SDS011;24875;48.436;10.298;2023-07-29T01:03:08;2.97;;;1.60;;
39140;SDS011;24875;48.436;10.298;2023-07-29T01:05:36;1.75;;;1.30;;
39140;SDS011;24875;48.436;10.298;2023-07-29T01:08:14;2.75;;;1.40;;
39140;SDS011;24875;48.436;10.298;2023-07-29T01:10:51;1.75;;;1.17;;
39140;SDS011;24875;48.436;10.298;2023-07-29T01:13:26;1.48;;;1.08;;
39140;SDS011;24875;48.436;10.298;2023-07-29T01:16:04;2.70;;;1.80;;
39140;SDS011;24875;48.436;10.298;2023-07-29T01:18:36;4.43;;;1.23;;
39140;SDS011;24875;48.436;10.298;2023-07-29T01:21:07;8.57;;;1.23;;
39140;SDS011;24875;48.436;10.298;2023-07-29T01:23:35;4.72;;;1.52;;
39140;SDS011;24875;48.436;10.298;2023-07-29T01:26:02;0.98;;;0.90;;
39140;SDS011;24875;48.436;10.298;2023-07-29T01:28:29;1.13;;;1.00;;
39140;SDS011;24875;48.436;10.298;2023-07-29T01:30:58;1.55;;;1.02;;
39140;SDS011;24875;48.436;10.298;2023-07-29T01:33:30;1.75;;;1.02;;
39140;SDS011;24875;48.436;10.298;2023-07-29T01:36:02;1.15;;;0.93;;
39140;SDS011;24875;48.436;10.298;2023-07-29T01:38:35;2.25;;;1.67;;
39140;SDS011;24875;48.436;10.298;2023-07-29T01:41:06;2.55;;;1.63;;
39140;SDS011;24875;48.436;10.298;2023-07-29T01:43:34;1.80;;;1.10;;
39140;SDS011;24875;48.436;10.298;2023-07-29T01:46:06;1.80;;;1.00;;
39140;SDS011;24875;48.436;10.298;2023-07-29T01:48:33;2.53;;;1.23;;
39140;SDS011;24875;48.436;10.298;2023-07-29T01:51:00;1.80;;;1.23;;
39140;SDS011;24875;48.436;10.298;2023-07-29T01:53:26;2.53;;;1.52;;
39140;SDS011;24875;48.436;10.298;2023-07-29T01:55:54;1.88;;;1.33;;
39140;SDS011;24875;48.436;10.298;2023-07-29T01:58:21;2.15;;;1.38;;
39140;SDS011;24875;48.436;10.298;2023-07-29T02:00:48;3.28;;;1.90;;
39140;SDS011;24875;48.436;10.298;2023-07-29T02:03:15;1.77;;;1.23;;
39140;SDS011;24875;48.436;10.298;2023-07-29T02:05:41;2.83;;;1.38;;
39140;SDS011;24875;48.436;10.298;2023-07-29T02:08:08;2.15;;;1.10;;
39140;SDS011;24875;48.436;10.298;2023-07-29T02:10:35;2.10;;;1.70;;
39140;SDS011;24875;48.436;10.298;2023-07-29T02:13:03;4.50;;;1.38;;
39140;SDS011;24875;48.436;10.298;2023-07-29T02:15:30;4.57;;;1.35;;
39140;SDS011;24875;48.436;10.298;2023-07-29T02:17:56;5.50;;;1.75;;
39140;SDS011;24875;48.436;10.298;2023-07-29T02:20:24;4.40;;;1.42;;
39140;SDS011;24875;48.436;10.298;2023-07-29T02:22:50;3.42;;;1.73;;
39140;SDS011;24875;48.436;10.298;2023-07-29T02:25:17;2.67;;;1.80;;
39140;SDS011;24875;48.436;10.298;2023-07-29T02:27:43;2.90;;;1.45;;
39140;SDS011;24875;48.436;10.298;2023-07-29T02:30:12;4.10;;;1.52;;
39140;SDS011;24875;48.436;10.298;2023-07-29T02:32:38;2.97;;;1.60;;
39140;SDS011;24875;48.436;10.298;2023-07-29T02:35:05;2.78;;;1.63;;
39140;SDS011;24875;48.436;10.298;2023-07-29T02:37:32;3.40;;;1.80;;
39140;SDS011;24875;48.436;10.298;2023-07-29T02:39:59;3.33;;;1.70;;
39140;SDS011;24875;48.436;10.298;2023-07-29T02:42:25;6.95;;;1.60;;
39140;SDS011;24875;48.436;10.298;2023-07-29T02:44:52;3.28;;;1.73;;
39140;SDS011;24875;48.436;10.298;2023-07-29T02:47:20;4.32;;;1.73;;
39140;SDS011;24875;48.436;10.298;2023-07-29T02:49:46;2.38;;;1.23;;
39140;SDS011;24875;48.436;10.298;2023-07-29T02:52:13;1.80;;;1.40;;
39140;SDS011;24875;48.436;10.298;2023-07-29T02:54:39;4.43;;;1.77;;
39140;SDS011;24875;48.436;10.298;2023-07-29T02:57:06;2.67;;;1.67;;
39140;SDS011;24875;48.436;10.298;2023-07-29T02:59:32;4.38;;;1.52;;
39140;SDS011;24875;48.436;10.298;2023-07-29T03:01:59;2.08;;;1.25;;
39140;SDS011;24875;48.436;10.298;2023-07-29T03:04:27;2.50;;;1.55;;
39140;SDS011;24875;48.436;10.298;2023-07-29T03:06:53;2.13;;;1.58;;
39140;SDS011;24875;48.436;10.298;2023-07-29T03:09:20;4.78;;;1.73;;
39140;SDS011;24875;48.436;10.298;2023-07-29T03:11:46;2.15;;;1.50;;
39140;SDS011;24875;48.436;10.298;2023-07-29T03:14:13;3.03;;;1.45;;
39140;SDS011;24875;48.436;10.298;2023-07-29T03:16:39;2.20;;;1.50;;
39140;SDS011;24875;48.436;10.298;2023-07-29T03:19:05;2.92;;;1.60;;
39140;SDS011;24875;48.436;10.298;2023-07-29T03:21:33;3.63;;;1.80;;
39140;SDS011;24875;48.436;10.298;2023-07-29T03:24:00;3.40;;;1.70;;
39140;SDS011;24875;48.436;10.298;2023-07-29T03:26:26;6.40;;;1.55;;
39140;SDS011;24875;48.436;10.298;2023-07-29T03:28:53;3.33;;;1.60;;
39140;SDS011;24875;48.436;10.298;2023-07-29T03:31:19;2.65;;;1.48;;
39140;SDS011;24875;48.436;10.298;2023-07-29T03:33:46;3.42;;;1.58;;
39140;SDS011;24875;48.436;10.298;2023-07-29T03:36:12;4.60;;;1.50;;
39140;SDS011;24875;48.436;10.298;2023-07-29T03:38:40;3.60;;;1.48;;
39140;SDS011;24875;48.436;10.298;2023-07-29T03:41:07;1.90;;;1.20;;
39140;SDS011;24875;48.436;10.298;2023-07-29T03:43:34;3.65;;;1.50;;
39140;SDS011;24875;48.436;10.298;2023-07-29T03:46:00;2.72;;;1.58;;
39140;SDS011;24875;48.436;10.298;2023-07-29T03:48:27;4.78;;;1.33;;
39140;SDS011;24875;48.436;10.298;2023-07-29T03:50:53;2.47;;;1.33;;
39140;SDS011;24875;48.436;10.298;2023-07-29T03:53:20;4.22;;;2.47;;
39140;SDS011;24875;48.436;10.298;2023-07-29T03:55:48;1.67;;;1.00;;
39140;SDS011;24875;48.436;10.298;2023-07-29T03:58:15;4.63;;;1.20;;
39140;SDS011;24875;48.436;10.298;2023-07-29T04:00:41;1.40;;;1.13;;
39140;SDS011;24875;48.436;10.298;2023-07-29T04:03:08;1.67;;;0.90;;
39140;SDS011;24875;48.436;10.298;2023-07-29T04:05:35;2.38;;;1.20;;
39140;SDS011;24875;48.436;10.298;2023-07-29T04:08:02;1.67;;;1.30;;
39140;SDS011;24875;48.436;10.298;2023-07-29T04:10:28;2.10;;;1.10;;
39140;SDS011;24875;48.436;10.298;2023-07-29T04:12:58;1.67;;;1.30;;
39140;SDS011;24875;48.436;10.298;2023-07-29T04:15:24;1.98;;;1.15;;
39140;SDS011;24875;48.436;10.298;2023-07-29T04:17:51;1.42;;;1.30;;
39140;SDS011;24875;48.436;10.298;2023-07-29T04:20:17;2.97;;;2.25;;
39140;SDS011;24875;48.436;10.298;2023-07-29T04:22:44;4.10;;;1.35;;
39140;SDS011;24875;48.436;10.298;2023-07-29T04:25:10;2.92;;;1.33;;
39140;SDS011;24875;48.436;10.298;2023-07-29T04:27:38;1.90;;;1.27;;
39140;SDS011;24875;48.436;10.298;2023-07-29T04:30:06;2.42;;;1.30;;
39140;SDS011;24875;48.436;10.298;2023-07-29T04:32:34;7.38;;;1.58;;
39140;SDS011;24875;48.436;10.298;2023-07-29T04:35:00;1.58;;;1.17;;
39140;SDS011;24875;48.436;10.298;2023-07-29T04:37:27;4.18;;;1.45;;
39140;SDS011;24875;48.436;10.298;2023-07-29T04:39:53;2.10;;;1.27;;
39140;SDS011;24875;48.436;10.298;2023-07-29T04:42:20;2.40;;;1.30;;
39140;SDS011;24875;48.436;10.298;2023-07-29T04:44:46;2.75;;;1.48;;
39140;SDS011;24875;48.436;10.298;2023-07-29T04:47:14;2.58;;;1.50;;
39140;SDS011;24875;48.436;10.298;2023-07-29T04:49:41;2.15;;;1.15;;
39140;SDS011;24875;48.436;10.298;2023-07-29T04:52:07;2.85;;;1.48;;
39140;SDS011;24875;48.436;10.298;2023-07-29T04:54:34;2.78;;;1.52;;
39140;SDS011;24875;48.436;10.298;2023-07-29T04:57:00;1.92;;;1.33;;
39140;SDS011;24875;48.436;10.298;2023-07-29T04:59:27;1.95;;;1.33;;
39140;SDS011;24875;48.436;10.298;2023-07-29T05:01:53;1.85;;;1.20;;
39140;SDS011;24875;48.436;10.298;2023-07-29T05:04:21;2.63;;;1.65;;
39140;SDS011;24875;48.436;10.298;2023-07-29T05:06:47;2.33;;;1.65;;
39140;SDS011;24875;48.436;10.298;2023-07-29T05:09:16;2.53;;;1.40;;
39140;SDS011;24875;48.436;10.298;2023-07-29T05:11:43;2.28;;;1.55;;
39140;SDS011;24875;48.436;10.298;2023-07-29T05:14:10;3.58;;;1.65;;
39140;SDS011;24875;48.436;10.298;2023-07-29T05:16:37;2.50;;;1.52;;
39140;SDS011;24875;48.436;10.298;2023-07-29T05:19:03;2.35;;;1.13;;
39140;SDS011;24875;48.436;10.298;2023-07-29T05:21:31;2.42;;;1.38;;
39140;SDS011;24875;48.436;10.298;2023-07-29T05:23:58;9.07;;;2.15;;
39140;SDS011;24875;48.436;10.298;2023-07-29T05:26:24;3.08;;;1.42;;
39140;SDS011;24875;48.436;10.298;2023-07-29T05:28:51;2.30;;;1.50;;
39140;SDS011;24875;48.436;10.298;2023-07-29T05:31:17;2.42;;;1.23;;
39140;SDS011;24875;48.436;10.298;2023-07-29T05:33:44;2.72;;;1.40;;
39140;SDS011;24875;48.436;10.298;2023-07-29T05:36:10;1.98;;;1.23;;
39140;SDS011;24875;48.436;10.298;2023-07-29T05:38:38;1.85;;;1.08;;
39140;SDS011;24875;48.436;10.298;2023-07-29T05:41:05;2.35;;;1.30;;
39140;SDS011;24875;48.436;10.298;2023-07-29T05:43:31;5.15;;;1.58;;
39140;SDS011;24875;48.436;10.298;2023-07-29T05:45:58;5.22;;;2.22;;
39140;SDS011;24875;48.436;10.298;2023-07-29T05:48:24;4.65;;;1.67;;
39140;SDS011;24875;48.436;10.298;2023-07-29T05:50:51;3.55;;;1.30;;
39140;SDS011;24875;48.436;10.298;2023-07-29T05:53:17;5.10;;;1.38;;
39140;SDS011;24875;48.436;10.298;2023-07-29T05:55:45;2.75;;;1.25;;
39140;SDS011;24875;48.436;10.298;2023-07-29T05:58:12;1.88;;;1.55;;
39140;SDS011;24875;48.436;10.298;2023-07-29T06:00:38;2.08;;;1.35;;
39140;SDS011;24875;48.436;10.298;2023-07-29T06:03:05;1.27;;;1.15;;
39140;SDS011;24875;48.436;10.298;2023-07-29T06:05:31;2.78;;;1.52;;
39140;SDS011;24875;48.436;10.298;2023-07-29T06:07:58;1.55;;;1.08;;
39140;SDS011;24875;48.436;10.298;2023-07-29T06:10:24;7.43;;;2.13;;
39140;SDS011;24875;48.436;10.298;2023-07-29T06:12:52;6.10;;;1.92;;
39140;SDS011;24875;48.436;10.298;2023-07-29T06:15:18;2.33;;;1.45;;
39140;SDS011;24875;48.436;10.298;2023-07-29T06:17:47;1.95;;;1.35;;
39140;SDS011;24875;48.436;10.298;2023-07-29T06:20:14;2.15;;;1.17;;
39140;SDS011;24875;48.436;10.298;2023-07-29T06:22:41;3.13;;;1.60;;
39140;SDS011;24875;48.436;10.298;2023-07-29T06:25:08;1.95;;;1.23;;
39140;SDS011;24875;48.436;10.298;2023-07-29T06:27:34;2.80;;;1.48;;
39140;SDS011;24875;48.436;10.298;2023-07-29T06:30:02;2.65;;;1.75;;
39140;SDS011;24875;48.436;10.298;2023-07-29T06:32:29;5.70;;;1.05;;
39140;SDS011;24875;48.436;10.298;2023-07-29T06:34:56;3.22;;;1.35;;
39140;SDS011;24875;48.436;10.298;2023-07-29T06:37:22;5.60;;;1.40;;
39140;SDS011;24875;48.436;10.298;2023-07-29T06:39:49;3.35;;;1.42;;
39140;SDS011;24875;48.436;10.298;2023-07-29T06:42:15;2.40;;;1.30;;
39140;SDS011;24875;48.436;10.298;2023-07-29T06:44:42;3.17;;;1.73;;
39140;SDS011;24875;48.436;10.298;2023-07-29T06:47:12;5.15;;;1.65;;
39140;SDS011;24875;48.436;10.298;2023-07-29T06:49:38;2.38;;;1.15;;
39140;SDS011;24875;48.436;10.298;2023-07-29T06:52:05;1.92;;;1.55;;
39140;SDS011;24875;48.436;10.298;2023-07-29T06:54:31;2.63;;;1.83;;
39140;SDS011;24875;48.436;10.298;2023-07-29T06:56:58;3.80;;;1.02;;
39140;SDS011;24875;48.436;10.298;2023-07-29T06:59:25;1.52;;;1.08;;
39140;SDS011;24875;48.436;10.298;2023-07-29T07:01:51;2.58;;;1.38;;
39140;SDS011;24875;48.436;10.298;2023-07-29T07:04:19;4.15;;;1.30;;
39140;SDS011;24875;48.436;10.298;2023-07-29T07:06:45;4.13;;;1.35;;
39140;SDS011;24875;48.436;10.298;2023-07-29T07:09:12;4.35;;;1.55;;
39140;SDS011;24875;48.436;10.298;2023-07-29T07:11:38;2.97;;;1.25;;
39140;SDS011;24875;48.436;10.298;2023-07-29T07:14:05;2.25;;;1.48;;
39140;SDS011;24875;48.436;10.298;2023-07-29T07:16:31;2.28;;;1.45;;
39140;SDS011;24875;48.436;10.298;2023-07-29T07:18:58;2.40;;;1.42;;
39140;SDS011;24875;48.436;10.298;2023-07-29T07:21:26;3.83;;;1.35;;
39140;SDS011;24875;48.436;10.298;2023-07-29T07:23:52;1.90;;;1.20;;
39140;SDS011;24875;48.436;10.298;2023-07-29T07:26:19;4.47;;;1.20;;
39140;SDS011;24875;48.436;10.298;2023-07-29T07:28:45;2.83;;;1.63;;
39140;SDS011;24875;48.436;10.298;2023-07-29T07:31:12;2.45;;;1.25;;
39140;SDS011;24875;48.436;10.298;2023-07-29T07:33:38;1.70;;;1.15;;
39140;SDS011;24875;48.436;10.298;2023-07-29T07:36:04;2.15;;;1.30;;
39140;SDS011;24875;48.436;10.298;2023-07-29T07:38:32;6.78;;;1.40;;
39140;SDS011;24875;48.436;10.298;2023-07-29T07:40:59;3.28;;;1.13;;
39140;SDS011;24875;48.436;10.298;2023-07-29T07:43:26;3.45;;;1.60;;
39140;SDS011;24875;48.436;10.298;2023-07-29T07:45:57;3.63;;;1.60;;
39140;SDS011;24875;48.436;10.298;2023-07-29T07:48:24;4.55;;;1.90;;
39140;SDS011;24875;48.436;10.298;2023-07-29T07:50:50;2.13;;;1.65;;
39140;SDS011;24875;48.436;10.298;2023-07-29T07:53:17;2.92;;;1.58;;
39140;SDS011;24875;48.436;10.298;2023-07-29T07:55:46;3.28;;;1.70;;
39140;SDS011;24875;48.436;10.298;2023-07-29T07:58:12;2.65;;;1.38;;
39140;SDS011;24875;48.436;10.298;2023-07-29T08:00:39;3.10;;;1.25;;
39140;SDS011;24875;48.436;10.298;2023-07-29T08:03:06;2.33;;;1.52;;
39140;SDS011;24875;48.436;10.298;2023-07-29T08:05:32;2.72;;;1.50;;
39140;SDS011;24875;48.436;10.298;2023-07-29T08:07:59;2.75;;;1.55;;
39140;SDS011;24875;48.436;10.298;2023-07-29T08:10:25;3.78;;;1.67;;
39140;SDS011;24875;48.436;10.298;2023-07-29T08:12:53;1.83;;;1.10;;
39140;SDS011;24875;48.436;10.298;2023-07-29T08:15:19;4.55;;;1.23;;
39140;SDS011;24875;48.436;10.298;2023-07-29T08:17:46;1.85;;;1.08;;
39140;SDS011;24875;48.436;10.298;2023-07-29T08:20:12;2.78;;;1.63;;
39140;SDS011;24875;48.436;10.298;2023-07-29T08:22:39;2.30;;;1.85;;
39140;SDS011;24875;48.436;10.298;2023-07-29T08:25:06;1.67;;;1.15;;
39140;SDS011;24875;48.436;10.298;2023-07-29T08:27:33;2.60;;;1.20;;
39140;SDS011;24875;48.436;10.298;2023-07-29T08:30:01;1.42;;;1.00;;
39140;SDS011;24875;48.436;10.298;2023-07-29T08:32:27;3.17;;;1.48;;
39140;SDS011;24875;48.436;10.298;2023-07-29T08:34:54;2.95;;;0.88;;
39140;SDS011;24875;48.436;10.298;2023-07-29T08:37:20;2.53;;;1.35;;
39140;SDS011;24875;48.436;10.298;2023-07-29T08:39:47;2.22;;;1.30;;
39140;SDS011;24875;48.436;10.298;2023-07-29T08:42:13;1.45;;;1.17;;
39140;SDS011;24875;48.436;10.298;2023-07-29T08:44:45;6.18;;;1.48;;
39140;SDS011;24875;48.436;10.298;2023-07-29T08:47:13;1.02;;;0.68;;
39140;SDS011;24875;48.436;10.298;2023-07-29T08:49:40;1.48;;;0.90;;
39140;SDS011;24875;48.436;10.298;2023-07-29T08:52:07;0.90;;;0.80;;
39140;SDS011;24875;48.436;10.298;2023-07-29T08:54:35;1.58;;;0.95;;
39140;SDS011;24875;48.436;10.298;2023-07-29T08:57:03;3.22;;;1.85;;
39140;SDS011;24875;48.436;10.298;2023-07-29T08:59:30;2.72;;;1.35;;
39140;SDS011;24875;48.436;10.298;2023-07-29T09:01:57;3.35;;;2.08;;
39140;SDS011;24875;48.436;10.298;2023-07-29T09:04:26;3.67;;;1.88;;
39140;SDS011;24875;48.436;10.298;2023-07-29T09:06:54;8.38;;;2.78;;
39140;SDS011;24875;48.436;10.298;2023-07-29T09:09:22;2.08;;;1.58;;
39140;SDS011;24875;48.436;10.298;2023-07-29T09:11:49;2.45;;;1.27;;
39140;SDS011;24875;48.436;10.298;2023-07-29T09:14:15;2.45;;;1.10;;
39140;SDS011;24875;48.436;10.298;2023-07-29T09:16:42;2.75;;;0.90;;
39140;SDS011;24875;48.436;10.298;2023-07-29T09:19:09;0.77;;;0.70;;
39140;SDS011;24875;48.436;10.298;2023-07-29T09:21:39;3.17;;;0.93;;
39140;SDS011;24875;48.436;10.298;2023-07-29T09:24:06;1.48;;;1.02;;
39140;SDS011;24875;48.436;10.298;2023-07-29T09:26:34;1.00;;;0.90;;
39140;SDS011;24875;48.436;10.298;2023-07-29T09:29:00;1.35;;;1.02;;
39140;SDS011;24875;48.436;10.298;2023-07-29T09:31:27;1.55;;;1.20;;
39140;SDS011;24875;48.436;10.298;2023-07-29T09:33:55;2.22;;;1.38;;
39140;SDS011;24875;48.436;10.298;2023-07-29T09:36:23;1.75;;;1.13;;
39140;SDS011;24875;48.436;10.298;2023-07-29T09:38:53;3.90;;;1.25;;
39140;SDS011;24875;48.436;10.298;2023-07-29T09:41:21;1.50;;;0.95;;
39140;SDS011;24875;48.436;10.298;2023-07-29T09:43:51;3.88;;;1.17;;
39140;SDS011;24875;48.436;10.298;2023-07-29T09:46:23;7.68;;;1.33;;
39140;SDS011;24875;48.436;10.298;2023-07-29T09:48:50;1.00;;;0.80;;
39140;SDS011;24875;48.436;10.298;2023-07-29T09:51:20;1.83;;;1.13;;
39140;SDS011;24875;48.436;10.298;2023-07-29T09:53:47;1.27;;;0.70;;
39140;SDS011;24875;48.436;10.298;2023-07-29T09:56:17;0.85;;;0.73;;
39140;SDS011;24875;48.436;10.298;2023-07-29T09:58:44;1.52;;;0.80;;
39140;SDS011;24875;48.436;10.298;2023-07-29T10:01:11;2.03;;;0.90;;
39140;SDS011;24875;48.436;10.298;2023-07-29T10:03:38;0.93;;;0.70;;
39140;SDS011;24875;48.436;10.298;2023-07-29T10:06:06;1.65;;;1.02;;
39140;SDS011;24875;48.436;10.298;2023-07-29T10:08:33;2.83;;;1.08;;
39140;SDS011;24875;48.436;10.298;2023-07-29T10:11:03;1.92;;;0.98;;
39140;SDS011;24875;48.436;10.298;2023-07-29T10:13:32;2.75;;;1.02;;
39140;SDS011;24875;48.436;10.298;2023-07-29T10:15:59;1.83;;;1.17;;
39140;SDS011;24875;48.436;10.298;2023-07-29T10:18:27;1.40;;;0.93;;
39140;SDS011;24875;48.436;10.298;2023-07-29T10:20:56;1.75;;;1.10;;
39140;SDS011;24875;48.436;10.298;2023-07-29T10:23:24;2.63;;;0.95;;
39140;SDS011;24875;48.436;10.298;2023-07-29T10:25:54;3.53;;;1.17;;
39140;SDS011;24875;48.436;10.298;2023-07-29T10:28:25;1.75;;;0.80;;
39140;SDS011;24875;48.436;10.298;2023-07-29T10:30:53;2.08;;;0.90;;
39140;SDS011;24875;48.436;10.298;2023-07-29T10:33:20;2.42;;;1.10;;
39140;SDS011;24875;48.436;10.298;2023-07-29T10:35:47;4.15;;;1.52;;
39140;SDS011;24875;48.436;10.298;2023-07-29T10:38:14;2.38;;;0.85;;
39140;SDS011;24875;48.436;10.298;2023-07-29T10:40:45;1.35;;;1.00;;
39140;SDS011;24875;48.436;10.298;2023-07-29T10:43:12;0.65;;;0.60;;
39140;SDS011;24875;48.436;10.298;2023-07-29T10:45:44;1.60;;;1.10;;
39140;SDS011;24875;48.436;10.298;2023-07-29T10:48:12;1.00;;;0.90;;
39140;SDS011;24875;48.436;10.298;2023-07-29T10:50:49;1.77;;;1.08;;
39140;SDS011;24875;48.436;10.298;2023-07-29T10:53:16;0.77;;;0.60;;
39140;SDS011;24875;48.436;10.298;2023-07-29T10:55:43;0.40;;;0.40;;
39140;SDS011;24875;48.436;10.298;2023-07-29T10:58:13;1.83;;;0.80;;
39140;SDS011;24875;48.436;10.298;2023-07-29T11:00:42;0.98;;;0.75;;
39140;SDS011;24875;48.436;10.298;2023-07-29T11:03:09;1.30;;;1.00;;
39140;SDS011;24875;48.436;10.298;2023-07-29T11:05:48;1.73;;;0.88;;
39140;SDS011;24875;48.436;10.298;2023-07-29T11:08:16;1.67;;;0.85;;
39140;SDS011;24875;48.436;10.298;2023-07-29T11:10:43;3.67;;;1.10;;
39140;SDS011;24875;48.436;10.298;2023-07-29T11:13:10;1.45;;;0.88;;
39140;SDS011;24875;48.436;10.298;2023-07-29T11:15:37;0.93;;;0.77;;
39140;SDS011;24875;48.436;10.298;2023-07-29T11:18:05;2.92;;;1.08;;
39140;SDS011;24875;48.436;10.298;2023-07-29T11:20:33;8.07;;;1.20;;
39140;SDS011;24875;48.436;10.298;2023-07-29T11:23:02;2.97;;;1.40;;
39140;SDS011;24875;48.436;10.298;2023-07-29T11:25:30;2.28;;;1.50;;
39140;SDS011;24875;48.436;10.298;2023-07-29T11:27:58;2.85;;;1.35;;
39140;SDS011;24875;48.436;10.298;2023-07-29T11:30:26;1.20;;;0.90;;
39140;SDS011;24875;48.436;10.298;2023-07-29T11:32:54;1.65;;;0.98;;
39140;SDS011;24875;48.436;10.298;2023-07-29T11:35:21;5.18;;;1.20;;
39140;SDS011;24875;48.436;10.298;2023-07-29T11:37:48;3.40;;;1.02;;
39140;SDS011;24875;48.436;10.298;2023-07-29T11:40:18;0.90;;;0.73;;
39140;SDS011;24875;48.436;10.298;2023-07-29T11:42:46;2.25;;;1.10;;
39140;SDS011;24875;48.436;10.298;2023-07-29T11:45:15;3.25;;;1.45;;
39140;SDS011;24875;48.436;10.298;2023-07-29T11:47:42;2.05;;;1.00;;
39140;SDS011;24875;48.436;10.298;2023-07-29T11:50:09;2.55;;;1.40;;
39140;SDS011;24875;48.436;10.298;2023-07-29T11:52:39;2.28;;;1.15;;
39140;SDS011;24875;48.436;10.298;2023-07-29T11:55:07;1.08;;;0.70;;
39140;SDS011;24875;48.436;10.298;2023-07-29T11:57:36;1.95;;;1.05;;
39140;SDS011;24875;48.436;10.298;2023-07-29T12:00:05;5.70;;;1.10;;
39140;SDS011;24875;48.436;10.298;2023-07-29T12:02:32;1.02;;;0.90;;
39140;SDS011;24875;48.436;10.298;2023-07-29T12:05:02;0.60;;;0.50;;
39140;SDS011;24875;48.436;10.298;2023-07-29T12:07:30;1.17;;;1.00;;
39140;SDS011;24875;48.436;10.298;2023-07-29T12:09:58;1.05;;;0.63;;
39140;SDS011;24875;48.436;10.298;2023-07-29T12:12:25;1.13;;;0.60;;
39140;SDS011;24875;48.436;10.298;2023-07-29T12:14:53;2.25;;;0.93;;
39140;SDS011;24875;48.436;10.298;2023-07-29T12:17:20;0.50;;;0.50;;
39140;SDS011;24875;48.436;10.298;2023-07-29T12:19:46;1.90;;;0.80;;
39140;SDS011;24875;48.436;10.298;2023-07-29T12:22:17;0.52;;;0.47;;
39140;SDS011;24875;48.436;10.298;2023-07-29T12:24:45;1.20;;;0.80;;
39140;SDS011;24875;48.436;10.298;2023-07-29T12:27:12;0.90;;;0.60;;
39140;SDS011;24875;48.436;10.298;2023-07-29T12:29:40;2.08;;;0.85;;
39140;SDS011;24875;48.436;10.298;2023-07-29T12:32:09;1.10;;;1.00;;
39140;SDS011;24875;48.436;10.298;2023-07-29T12:34:36;1.70;;;0.75;;
39140;SDS011;24875;48.436;10.298;2023-07-29T12:37:05;2.88;;;0.98;;
39140;SDS011;24875;48.436;10.298;2023-07-29T12:39:33;0.80;;;0.65;;
39140;SDS011;24875;48.436;10.298;2023-07-29T12:42:01;0.70;;;0.55;;
39140;SDS011;24875;48.436;10.298;2023-07-29T12:44:30;0.63;;;0.50;;
39140;SDS011;24875;48.436;10.298;2023-07-29T12:46:57;0.88;;;0.50;;
39140;SDS011;24875;48.436;10.298;2023-07-29T12:49:25;1.13;;;0.52;;
39140;SDS011;24875;48.436;10.298;2023-07-29T12:51:53;0.55;;;0.52;;
39140;SDS011;24875;48.436;10.298;2023-07-29T12:54:19;1.73;;;0.73;;
39140;SDS011;24875;48.436;10.298;2023-07-29T12:56:46;0.80;;;0.50;;
39140;SDS011;24875;48.436;10.298;2023-07-29T12:59:12;0.60;;;0.60;;
39140;SDS011;24875;48.436;10.298;2023-07-29T13:01:39;0.73;;;0.60;;
39140;SDS011;24875;48.436;10.298;2023-07-29T13:04:06;1.23;;;0.82;;
39140;SDS011;24875;48.436;10.298;2023-07-29T13:06:34;0.57;;;0.50;;
39140;SDS011;24875;48.436;10.298;2023-07-29T13:09:01;1.27;;;0.75;;
39140;SDS011;24875;48.436;10.298;2023-07-29T13:11:28;1.17;;;0.70;;
39140;SDS011;24875;48.436;10.298;2023-07-29T13:13:54;4.63;;;1.00;;
39140;SDS011;24875;48.436;10.298;2023-07-29T13:16:21;0.68;;;0.60;;
39140;SDS011;24875;48.436;10.298;2023-07-29T13:18:47;0.50;;;0.50;;
39140;SDS011;24875;48.436;10.298;2023-07-29T13:21:14;1.00;;;0.63;;
39140;SDS011;24875;48.436;10.298;2023-07-29T13:23:41;0.70;;;0.60;;
39140;SDS011;24875;48.436;10.298;2023-07-29T13:26:08;1.73;;;0.60;;
39140;SDS011;24875;48.436;10.298;2023-07-29T13:28:36;0.63;;;0.57;;
39140;SDS011;24875;48.436;10.298;2023-07-29T13:31:02;0.82;;;0.60;;
39140;SDS011;24875;48.436;10.298;2023-07-29T13:33:29;1.13;;;0.60;;
39140;SDS011;24875;48.436;10.298;2023-07-29T13:35:58;0.65;;;0.60;;
39140;SDS011;24875;48.436;10.298;2023-07-29T13:38:25;1.23;;;0.60;;
39140;SDS011;24875;48.436;10.298;2023-07-29T13:40:53;1.65;;;0.70;;
39140;SDS011;24875;48.436;10.298;2023-07-29T13:43:19;0.35;;;0.30;;
39140;SDS011;24875;48.436;10.298;2023-07-29T13:45:46;0.75;;;0.50;;
39140;SDS011;24875;48.436;10.298;2023-07-29T13:48:14;0.55;;;0.50;;
39140;SDS011;24875;48.436;10.298;2023-07-29T13:50:41;2.40;;;0.70;;
39140;SDS011;24875;48.436;10.298;2023-07-29T13:53:08;0.30;;;0.30;;
39140;SDS011;24875;48.436;10.298;2023-07-29T13:55:35;0.75;;;0.63;;
39140;SDS011;24875;48.436;10.298;2023-07-29T13:58:03;0.47;;;0.40;;
39140;SDS011;24875;48.436;10.298;2023-07-29T14:00:29;1.55;;;0.47;;
39140;SDS011;24875;48.436;10.298;2023-07-29T14:02:56;1.00;;;0.60;;
39140;SDS011;24875;48.436;10.298;2023-07-29T14:05:22;1.30;;;0.60;;
39140;SDS011;24875;48.436;10.298;2023-07-29T14:07:49;0.95;;;0.60;;
39140;SDS011;24875;48.436;10.298;2023-07-29T14:10:15;2.15;;;0.50;;
39140;SDS011;24875;48.436;10.298;2023-07-29T14:12:42;0.60;;;0.50;;
39140;SDS011;24875;48.436;10.298;2023-07-29T14:15:10;3.05;;;0.82;;
39140;SDS011;24875;48.436;10.298;2023-07-29T14:17:36;1.20;;;0.75;;
39140;SDS011;24875;48.436;10.298;2023-07-29T14:20:03;1.17;;;0.50;;
39140;SDS011;24875;48.436;10.298;2023-07-29T14:22:30;1.17;;;0.65;;
39140;SDS011;24875;48.436;10.298;2023-07-29T14:24:57;0.40;;;0.40;;
39140;SDS011;24875;48.436;10.298;2023-07-29T14:27:23;1.45;;;0.60;;
39140;SDS011;24875;48.436;10.298;2023-07-29T14:29:50;0.93;;;0.50;;
39140;SDS011;24875;48.436;10.298;2023-07-29T14:32:18;1.38;;;0.50;;
39140;SDS011;24875;48.436;10.298;2023-07-29T14:34:44;0.80;;;0.60;;